sensor_id;sensor_type;location;lat;lon;timestamp;P1;durP1;ratioP1;P2;durP2;ratioP2
73104;SDS011;61296;50.526;30.792;2023-10-19T00:09:23;15.73;;;8.80;;
73104;SDS011;61296;50.526;30.792;2023-10-19T00:24:42;15.55;;;9.15;;
73104;SDS011;61296;50.526;30.792;2023-10-19T00:40:02;14.75;;;9.15;;
73104;SDS011;61296;50.526;30.792;2023-10-19T00:55:35;19.95;;;11.18;;
73104;SDS011;61296;50.526;30.792;2023-10-19T01:10:57;21.80;;;11.32;;
73104;SDS011;61296;50.526;30.792;2023-10-19T01:26:16;21.70;;;11.63;;
73104;SDS011;61296;50.526;30.792;2023-10-19T01:41:56;19.85;;;11.02;;
73104;SDS011;61296;50.526;30.792;2023-10-19T01:57:17;20.75;;;10.65;;
73104;SDS011;61296;50.526;30.792;2023-10-19T02:12:37;19.75;;;10.70;;
73104;SDS011;61296;50.526;30.792;2023-10-19T02:27:56;22.88;;;12.07;;
73104;SDS011;61296;50.526;30.792;2023-10-19T02:43:16;26.25;;;13.98;;
73104;SDS011;61296;50.526;30.792;2023-10-19T02:58:35;25.20;;;14.10;;
73104;SDS011;61296;50.526;30.792;2023-10-19T03:13:54;29.58;;;14.93;;
73104;SDS011;61296;50.526;30.792;2023-10-19T03:29:15;28.52;;;14.15;;
73104;SDS011;61296;50.526;30.792;2023-10-19T03:44:42;34.33;;;17.27;;
73104;SDS011;61296;50.526;30.792;2023-10-19T04:00:07;32.38;;;16.77;;
73104;SDS011;61296;50.526;30.792;2023-10-19T04:15:33;32.97;;;16.53;;
73104;SDS011;61296;50.526;30.792;2023-10-19T04:30:53;30.63;;;17.58;;
73104;SDS011;61296;50.526;30.792;2023-10-19T04:46:12;34.97;;;18.95;;
73104;SDS011;61296;50.526;30.792;2023-10-19T05:01:32;35.30;;;18.52;;
73104;SDS011;61296;50.526;30.792;2023-10-19T05:16:53;34.20;;;18.90;;
73104;SDS011;61296;50.526;30.792;2023-10-19T05:32:15;36.65;;;19.27;;
73104;SDS011;61296;50.526;30.792;2023-10-19T05:47:34;40.47;;;20.08;;
73104;SDS011;61296;50.526;30.792;2023-10-19T06:02:53;41.42;;;20.65;;
73104;SDS011;61296;50.526;30.792;2023-10-19T06:18:13;40.40;;;20.27;;
73104;SDS011;61296;50.526;30.792;2023-10-19T06:33:33;44.97;;;21.15;;
73104;SDS011;61296;50.526;30.792;2023-10-19T06:48:52;46.00;;;21.08;;
73104;SDS011;61296;50.526;30.792;2023-10-19T07:04:14;44.95;;;21.02;;
73104;SDS011;61296;50.526;30.792;2023-10-19T07:19:34;44.28;;;23.35;;
73104;SDS011;61296;50.526;30.792;2023-10-19T07:34:54;45.35;;;22.63;;
73104;SDS011;61296;50.526;30.792;2023-10-19T07:50:13;46.55;;;22.88;;
73104;SDS011;61296;50.526;30.792;2023-10-19T08:05:36;38.75;;;20.85;;
73104;SDS011;61296;50.526;30.792;2023-10-19T08:20:57;42.78;;;22.33;;
73104;SDS011;61296;50.526;30.792;2023-10-19T08:36:20;36.08;;;19.58;;
73104;SDS011;61296;50.526;30.792;2023-10-19T08:51:41;31.52;;;18.20;;
73104;SDS011;61296;50.526;30.792;2023-10-19T09:22:34;27.13;;;15.05;;
73104;SDS011;61296;50.526;30.792;2023-10-19T09:37:55;24.97;;;12.43;;
73104;SDS011;61296;50.526;30.792;2023-10-19T09:53:15;24.40;;;11.65;;
73104;SDS011;61296;50.526;30.792;2023-10-19T10:08:38;22.25;;;11.90;;
73104;SDS011;61296;50.526;30.792;2023-10-19T10:23:59;15.98;;;9.23;;
73104;SDS011;61296;50.526;30.792;2023-10-19T10:39:19;15.15;;;9.27;;
73104;SDS011;61296;50.526;30.792;2023-10-19T10:54:43;13.93;;;7.60;;
73104;SDS011;61296;50.526;30.792;2023-10-19T11:10:04;12.13;;;7.82;;
73104;SDS011;61296;50.526;30.792;2023-10-19T11:25:24;18.35;;;8.98;;
73104;SDS011;61296;50.526;30.792;2023-10-19T11:40:47;12.98;;;7.60;;
73104;SDS011;61296;50.526;30.792;2023-10-19T11:56:07;16.15;;;9.43;;
73104;SDS011;61296;50.526;30.792;2023-10-19T12:11:28;14.27;;;7.97;;
73104;SDS011;61296;50.526;30.792;2023-10-19T12:26:49;14.32;;;8.10;;
73104;SDS011;61296;50.526;30.792;2023-10-19T12:42:18;13.10;;;7.88;;
73104;SDS011;61296;50.526;30.792;2023-10-19T12:57:37;14.88;;;8.48;;
73104;SDS011;61296;50.526;30.792;2023-10-19T13:12:57;13.02;;;8.57;;
73104;SDS011;61296;50.526;30.792;2023-10-19T13:28:17;15.82;;;9.63;;
73104;SDS011;61296;50.526;30.792;2023-10-19T13:43:56;17.42;;;10.80;;
73104;SDS011;61296;50.526;30.792;2023-10-19T13:59:16;15.90;;;10.45;;
73104;SDS011;61296;50.526;30.792;2023-10-19T14:14:36;19.05;;;11.07;;
73104;SDS011;61296;50.526;30.792;2023-10-19T14:29:58;20.88;;;12.65;;
73104;SDS011;61296;50.526;30.792;2023-10-19T14:45:17;21.48;;;13.18;;
73104;SDS011;61296;50.526;30.792;2023-10-19T15:00:36;24.67;;;13.90;;
73104;SDS011;61296;50.526;30.792;2023-10-19T15:16:08;20.63;;;12.63;;
73104;SDS011;61296;50.526;30.792;2023-10-19T15:31:28;24.90;;;13.70;;
73104;SDS011;61296;50.526;30.792;2023-10-19T15:46:48;22.52;;;13.23;;
73104;SDS011;61296;50.526;30.792;2023-10-19T16:02:08;34.72;;;18.17;;
73104;SDS011;61296;50.526;30.792;2023-10-19T16:17:44;30.75;;;17.38;;
73104;SDS011;61296;50.526;30.792;2023-10-19T16:33:05;43.55;;;23.30;;
73104;SDS011;61296;50.526;30.792;2023-10-19T16:48:25;33.55;;;18.38;;
73104;SDS011;61296;50.526;30.792;2023-10-19T17:03:44;37.80;;;20.08;;
73104;SDS011;61296;50.526;30.792;2023-10-19T17:19:04;39.35;;;20.35;;
73104;SDS011;61296;50.526;30.792;2023-10-19T17:34:24;35.92;;;19.77;;
73104;SDS011;61296;50.526;30.792;2023-10-19T17:49:46;33.38;;;19.08;;
73104;SDS011;61296;50.526;30.792;2023-10-19T18:05:13;39.40;;;20.80;;
73104;SDS011;61296;50.526;30.792;2023-10-19T18:20:42;38.08;;;19.63;;
73104;SDS011;61296;50.526;30.792;2023-10-19T18:36:12;43.40;;;21.70;;
73104;SDS011;61296;50.526;30.792;2023-10-19T18:51:55;41.17;;;20.48;;
73104;SDS011;61296;50.526;30.792;2023-10-19T19:07:16;38.78;;;20.33;;
73104;SDS011;61296;50.526;30.792;2023-10-19T19:22:52;38.90;;;21.10;;
73104;SDS011;61296;50.526;30.792;2023-10-19T19:38:12;39.55;;;21.58;;
73104;SDS011;61296;50.526;30.792;2023-10-19T19:54:14;36.77;;;20.30;;
73104;SDS011;61296;50.526;30.792;2023-10-19T20:10:00;40.28;;;21.10;;
73104;SDS011;61296;50.526;30.792;2023-10-19T20:25:39;42.40;;;22.73;;
73104;SDS011;61296;50.526;30.792;2023-10-19T20:41:20;52.65;;;28.17;;
73104;SDS011;61296;50.526;30.792;2023-10-19T20:57:06;66.65;;;30.70;;
73104;SDS011;61296;50.526;30.792;2023-10-19T21:13:18;60.93;;;32.47;;
73104;SDS011;61296;50.526;30.792;2023-10-19T21:28:37;59.75;;;31.38;;
73104;SDS011;61296;50.526;30.792;2023-10-19T21:43:56;65.43;;;33.17;;
73104;SDS011;61296;50.526;30.792;2023-10-19T21:59:17;52.40;;;29.08;;
73104;SDS011;61296;50.526;30.792;2023-10-19T22:14:36;58.13;;;31.27;;
73104;SDS011;61296;50.526;30.792;2023-10-19T22:29:56;47.85;;;26.20;;
73104;SDS011;61296;50.526;30.792;2023-10-19T22:45:15;49.80;;;25.15;;
73104;SDS011;61296;50.526;30.792;2023-10-19T23:00:35;53.80;;;29.77;;
73104;SDS011;61296;50.526;30.792;2023-10-19T23:15:55;52.83;;;27.88;;
73104;SDS011;61296;50.526;30.792;2023-10-19T23:31:19;52.50;;;27.90;;
73104;SDS011;61296;50.526;30.792;2023-10-19T23:46:47;46.45;;;24.98;;
